ADDS METAR Data INFO
IDs: Format: Raw Decoded Include TAF

Data at: 0431 UTC 24 Apr 2018

KILE 240356Z AUTO 06006KT 10SM CLR 18/11 A3003 RMK AO2 SLP181 T01780106
KILE 240256Z AUTO 05006KT 10SM CLR 19/11 A3004 RMK AO2 SLP184 T01940106 53016
KILE 240156Z AUTO 00000KT 10SM CLR 20/10 A3002 RMK AO2 SLP177 T02000100
KILE 240056Z AUTO 01004KT 10SM CLR 23/09 A3000 RMK AO2 SLP170 T02330094
KILE 232356Z AUTO 34005KT 10SM CLR 26/09 A2999 RMK AO2 SLP169 T02610089 10272 20233 55012
KILE 232256Z AUTO VRB06KT 10SM CLR 27/08 A2999 RMK AO2 SLP167 T02720083
KILE 232156Z AUTO VRB05KT 10SM CLR 27/08 A3000 RMK AO2 SLP173 T02670083
KILE 232056Z AUTO 34010G14KT 10SM CLR 27/09 A3003 RMK AO2 SLP180 T02670089 58028
KILE 231956Z AUTO 30012G15KT 10SM CLR 26/08 A3006 RMK AO2 SLP192 T02610083
KILE 231856Z AUTO 32011G16KT 10SM 24/09 A3008 RMK AO2 SLP200 T02440089
KILE 231756Z AUTO 34008G17KT 10SM CLR 23/08 A3011 RMK AO2 SLP209 T02330083 10233 20089 58010
KILE 231656Z AUTO 33010G16KT 10SM CLR 22/08 A3013 RMK AO2 SLP217 T02170083
KILE 231556Z AUTO 33009KT 10SM CLR 21/09 A3014 RMK AO2 SLP220 T02060089
KILE 231456Z AUTO 33007KT 10SM CLR 18/08 A3014 RMK AO2 SLP222 T01780083 50012
KILE 231356Z AUTO 32008KT 10SM CLR 16/08 A3015 RMK AO2 SLP224 T01610078
KILE 231256Z AUTO 36004KT 10SM CLR 13/08 A3013 RMK AO2 SLP218 T01330083
KILE 231056Z AUTO 26006KT 10SM CLR 09/07 A3008 RMK AO2 SLP202 T00890067
KILE 230956Z AUTO 00000KT 10SM CLR 09/07 A3006 RMK AO2 SLP195 T00890067
KILE 230856Z AUTO 28005KT 10SM CLR 11/07 A3006 RMK AO2 SLP194 T01060067 55004
KILE 230756Z AUTO 29004KT 10SM CLR 11/07 A3006 RMK AO2 SLP194 T01060072
KILE 230656Z AUTO 22003KT 10SM CLR 11/08 A3007 RMK AO2 SLP198 T01060078
KILE 230556Z AUTO 31004KT 10SM CLR 13/08 A3007 RMK AO2 SLP199 T01280078 10217 20117 402280106 51001
KILE 230456Z AUTO 00000KT 10SM CLR 13/07 A3007 RMK AO2 SLP199 T01280072
KILE 230356Z AUTO 04003KT 10SM CLR 13/07 A3007 RMK AO2 SLP201 T01330072
KILE 230256Z AUTO 02007KT 10SM CLR 16/08 A3007 RMK AO2 SLP199 T01560078 53013
KILE 230156Z AUTO 36003KT 10SM CLR 16/08 A3006 RMK AO2 SLP196 T01610078
KILE 230056Z AUTO 36006KT 10SM CLR 19/07 A3003 RMK AO2 SLP187 T01940072
KILE 222356Z AUTO 34010KT 10SM CLR 22/07 A3003 RMK AO2 SLP183 T02170072 10228 20183 55007
KILE 222256Z AUTO 33010KT 10SM CLR 22/07 A3002 RMK AO2 SLP180 T02220067
KILE 222156Z AUTO 34010G14KT 10SM CLR 22/07 A3003 RMK AO2 SLP183 T02220067
KILE 222056Z AUTO 32010KT 10SM FEW002 22/07 A3005 RMK AO2 SLP191 T02170072 56023
KILE 221956Z AUTO 35013G17KT 10SM CLR 21/08 A3007 RMK AO2 SLP197 T02110078
KILE 221856Z AUTO 34013KT 10SM FEW042 21/08 A3009 RMK AO2 SLP204 T02060078
KILE 221756Z AUTO 34011KT 10SM FEW031 19/08 A3012 RMK AO2 SLP214 T01890083 10189 20111 58007
KILE 221723Z AUTO 31010G17KT 8SM OVC031 17/08 A3013 RMK AO2
KILE 221656Z AUTO 33013G18KT 10SM BKN029 17/08 A3014 RMK AO2 SLP223 T01670083
KILE 221637Z AUTO 32007G18KT 10SM SCT025 17/09 A3015 RMK AO2